首页
METAR-TAF:

METAR-TAF

机场 :

Winslow, 亞利桑那州, 美国

纬度: 35-01-41N, 经度: 110-43-15W, 海拔: 1505米

当前天气观测

该预报发布于5分钟前的01:56 UTC
风速6节,风向西
温度 35°C
湿度 10%
气压 1018 hPa
能見度: 16.1公里
天空无云

METAR: KINW 220156Z AUTO 27006KT 10SM CLR 35/M01 A3006 RMK AO2 SLP087 T03501006

时间: 19:01 (02:01 UTC)

预报

该预报发布于2小时和33分钟前的23:28 UTC
预报有效从22日的 00点(UTC)到 22日的 24点(UTC)
风速10节,风向西
能見度: 10公里
天空无云
短暂存在
从 22日的 23点(UTC)到 22日的 24点(UTC)
风速20节,风向南转南东,有时为40节阵风
散云层高于13000英尺

TAF: KINW 212328Z 2200/2224 27010KT P6SM SKC TEMPO 2223/2224 15020G40KT SCT130

超过4000个机场的气象观测和天气预报(METAR&TAF报告)。

可查询的气象台以黄色和红色小点在地图上表示。

将鼠标移到小点上方,可查看气象台名称。

然后点击查看天气观测和预报。

如需切换地图:点击带黑十字的绿色按钮放大地图;点击带横线的绿色按钮缩小地图;或者点击绿色箭头查看邻近地区的地图。


METAR-TAF: